Time;durP1;ratioP1;P1;durP2;ratioP2;P2;SDS_P1;SDS_P2;PMS_P1;PMS_P2;Temp;Humidity;BMP_temperature;BMP_pressure;BME280_temperature;BME280_humidity;BME280_pressure;Samples;Min_cycle;Max_cycle;Signal;HPM_P1;HPM_P2
2023/11/29 00:10:22;;;;;;;38.00;17.10;;;;;;;-4.66;100.00;99518.95;223312;1265;141117;-77
2023/11/29 00:16:22;;;;;;;46.90;17.20;;;;;;;-4.55;100.00;99514.96;223300;1265;141140;-79
2023/11/29 00:22:24;;;;;;;42.20;18.30;;;;;;;-4.44;100.00;99519.37;223807;1265;139488;-78
2023/11/29 00:28:25;;;;;;;38.70;16.10;;;;;;;-4.33;100.00;99527.28;223296;1265;141696;-78
2023/11/29 00:34:19;;;;;;;40.00;16.50;;;;;;;-4.20;100.00;99528.93;223747;1265;139629;-78
2023/11/29 00:40:19;;;;;;;39.20;17.10;;;;;;;-4.08;100.00;99528.77;223297;1265;140860;-78
2023/11/29 00:46:20;;;;;;;35.00;16.00;;;;;;;-3.97;100.00;99526.48;223775;1265;139860;-79
2023/11/29 00:52:22;;;;;;;36.30;15.10;;;;;;;-3.86;100.00;99526.48;223721;1265;139670;-78
2023/11/29 01:04:24;;;;;;;37.50;16.00;;;;;;;-3.67;100.00;99539.52;223711;1265;139251;-78
2023/11/29 01:10:25;;;;;;;32.80;14.30;;;;;;;-3.60;100.00;99540.02;223257;1265;141074;-78
2023/11/29 01:16:26;;;;;;;35.30;15.50;;;;;;;-3.54;100.00;99538.66;223173;1266;140964;-79
2023/11/29 01:28:28;;;;;;;33.60;15.40;;;;;;;-3.38;100.00;99554.09;223294;1265;141240;-79
2023/11/29 01:34:30;;;;;;;40.30;16.60;;;;;;;-3.30;100.00;99553.41;223752;1265;139607;-79
2023/11/29 01:46:32;;;;;;;36.90;16.20;;;;;;;-3.20;100.00;99559.60;223245;1266;141447;-79
2023/11/29 01:52:33;;;;;;;41.50;17.40;;;;;;;-3.15;100.00;99558.02;223767;1266;139123;-79
2023/11/29 01:58:34;;;;;;;33.60;13.90;;;;;;;-3.14;100.00;99552.79;223250;1269;141263;-79
2023/11/29 02:10:27;;;;;;;32.40;13.70;;;;;;;-3.13;100.00;99548.02;223217;1265;141036;-79
2023/11/29 02:16:21;;;;;;;;;;;;;;;;;;;;;
2023/11/29 02:22:24;;;;;;;43.50;21.60;;;;;;;-3.24;100.00;99556.05;223652;1265;140586;-78
2023/11/29 02:28:24;;;;;;;37.30;17.80;;;;;;;-3.24;100.00;99554.21;223321;1265;141047;-78
2023/11/29 02:40:26;;;;;;;44.10;17.90;;;;;;;-3.19;100.00;99563.06;223304;1265;140821;-79
2023/11/29 02:46:28;;;;;;;42.10;18.10;;;;;;;-3.18;100.00;99566.88;223124;1265;141011;-79
2023/11/29 02:52:29;;;;;;;45.50;19.70;;;;;;;-3.18;100.00;99563.52;223722;1265;139299;-79
2023/11/29 02:58:30;;;;;;;47.20;18.30;;;;;;;-3.17;100.00;99563.33;223280;1265;140972;-79
2023/11/29 03:04:31;;;;;;;46.50;19.10;;;;;;;-3.15;100.00;99563.52;223781;1265;139233;-79
2023/11/29 03:10:22;;;;;;;54.80;23.00;;;;;;;-3.11;100.00;99562.71;223229;1265;140657;-79
2023/11/29 03:22:24;;;;;;;46.10;20.80;;;;;;;-3.04;100.00;99547.40;223710;1266;139367;-79
2023/11/29 03:28:25;;;;;;;47.50;20.70;;;;;;;-3.06;100.00;99539.11;223250;1266;141036;-79
2023/11/29 03:34:27;;;;;;;52.30;21.60;;;;;;;-3.10;100.00;99533.30;223728;1266;140022;-78
2023/11/29 03:40:28;;;;;;;48.60;20.80;;;;;;;-3.13;100.00;99540.98;223201;1266;141460;-79
2023/11/29 03:46:29;;;;;;;51.10;20.00;;;;;;;-3.17;100.00;99546.34;223141;1266;142381;-79
2023/11/29 03:52:22;;;;;;;;;;;;;;;;;;;;;
2023/11/29 03:58:24;;;;;;;54.90;21.70;;;;;;;-3.23;100.00;99546.05;223137;1266;140882;-79
2023/11/29 04:04:35;;;;;;;;;;;;;;;;;;;;;
2023/11/29 04:10:29;;;;;;;51.70;22.20;;;;;;;-3.31;100.00;99537.41;223192;1266;140808;-79
2023/11/29 04:16:27;;;;;;;45.10;18.20;;;;;;;-3.37;100.00;99522.77;223264;1265;141756;-79
2023/11/29 04:22:17;;;;;;;;;;;;;;;;;;;;;
2023/11/29 04:46:24;;;;;;;57.30;22.00;;;;;;;-3.56;100.00;99490.70;223241;1266;141020;-79
2023/11/29 04:58:26;;;;;;;61.00;26.30;;;;;;;-3.62;100.00;99490.75;223315;1265;141399;-78
2023/11/29 05:04:28;;;;;;;70.30;28.40;;;;;;;-3.68;100.00;99488.25;223791;1266;139430;-78
2023/11/29 05:10:29;;;;;;;66.40;28.00;;;;;;;-3.72;100.00;99488.08;223236;1265;141729;-78
2023/11/29 05:16:30;;;;;;;72.40;28.00;;;;;;;-3.75;100.00;99490.25;223180;1266;142835;-78
2023/11/29 05:22:14;;;;;;;64.30;25.20;;;;;;;-3.77;100.00;99486.67;223748;1266;140190;-78
2023/11/29 05:28:15;;;;;;;63.40;25.70;;;;;;;-3.75;100.00;99487.31;223211;1265;141294;-78
2023/11/29 05:34:16;;;;;;;55.00;21.80;;;;;;;-3.71;100.00;99491.83;223672;1266;139954;-78
2023/11/29 05:40:20;;;;;;;53.70;22.20;;;;;;;-3.66;100.00;99487.56;223158;1265;140987;-78
2023/11/29 05:46:32;;;;;;;47.60;21.70;;;;;;;-3.61;100.00;99482.00;223839;1265;139308;-78
2023/11/29 05:52:26;;;;;;;48.30;20.80;;;;;;;-3.54;100.00;99480.58;223796;1269;139276;-78
2023/11/29 05:58:28;;;;;;;43.20;19.50;;;;;;;-3.47;100.00;99483.00;223181;1265;141652;-78
2023/11/29 06:04:29;;;;;;;47.40;20.80;;;;;;;-3.41;100.00;99474.92;223755;1265;139781;-78
2023/11/29 06:10:30;;;;;;;51.30;21.00;;;;;;;-3.37;100.00;99466.92;223169;1265;140978;-77
2023/11/29 06:16:33;;;;;;;52.90;21.10;;;;;;;-3.32;100.00;99468.73;223249;1266;141697;-78
2023/11/29 06:22:33;;;;;;;41.90;18.90;;;;;;;-3.28;100.00;99472.52;223755;1266;140137;-79
2023/11/29 06:28:58;;;;;;;46.00;19.40;;;;;;;-3.26;100.00;99467.92;223247;1266;141340;-78
2023/11/29 06:34:35;;;;;;;45.90;20.40;;;;;;;-3.25;100.00;99474.77;223610;1265;140616;-79
2023/11/29 06:40:36;;;;;;;48.80;20.30;;;;;;;-3.24;100.00;99483.46;223321;1267;141006;-76
2023/11/29 06:47:04;;;;;;;46.10;20.20;;;;;;;-3.25;100.00;99492.36;223294;1269;141065;-77
2023/11/29 06:52:28;;;;;;;43.10;18.50;;;;;;;-3.25;100.00;99478.27;223568;1266;140251;-75
2023/11/29 06:58:20;;;;;;;;;;;;;;;;;;;;;
2023/11/29 07:04:12;;;;;;;40.80;18.60;;;;;;;-3.30;100.00;99494.01;223764;1265;139761;-75
2023/11/29 07:10:13;;;;;;;41.70;18.00;;;;;;;-3.32;100.00;99500.61;223211;1269;140931;-75
2023/11/29 07:16:14;;;;;;;34.50;15.80;;;;;;;-3.34;100.00;99508.80;223740;1269;139794;-75
2023/11/29 07:28:06;;;;;;;38.20;15.50;;;;;;;-3.35;100.00;99517.54;223302;1266;141251;-76
2023/11/29 07:34:07;;;;;;;33.00;15.00;;;;;;;-3.32;100.00;99530.11;223660;1270;140217;-75
2023/11/29 07:40:08;;;;;;;31.70;15.00;;;;;;;-3.27;100.00;99533.91;223228;1266;141377;-75
2023/11/29 07:46:10;;;;;;;34.90;15.50;;;;;;;-3.19;100.00;99524.70;223682;1269;140034;-75
2023/11/29 07:52:10;;;;;;;38.40;16.70;;;;;;;-3.09;100.00;99520.20;223781;1269;139834;-75
2023/11/29 07:57:47;;;;;;;31.10;14.00;;;;;;;-3.00;100.00;99522.81;223278;1267;141740;-75
2023/11/29 08:03:27;;;;;;;32.80;14.20;;;;;;;-2.93;100.00;99520.69;223786;1266;139924;-76
2023/11/29 08:09:28;;;;;;;31.00;14.70;;;;;;;-2.86;100.00;99522.46;223195;1269;140853;-76
2023/11/29 08:15:18;;;;;;;34.20;16.00;;;;;;;-2.75;100.00;99521.08;223733;1266;139304;-75
2023/11/29 08:21:20;;;;;;;32.00;15.60;;;;;;;-2.68;100.00;99511.73;223332;1269;140456;-76
2023/11/29 08:27:21;;;;;;;31.80;15.60;;;;;;;-2.62;100.00;99504.39;223194;1269;141256;-76
2023/11/29 08:39:21;;;;;;;34.10;14.90;;;;;;;-2.44;100.00;99494.52;223186;1267;141084;-76
2023/11/29 08:44:58;;;;;;;;;;;;;;;;;;;;;
2023/11/29 08:50:58;;;;;;;;;;;;;;;;;;;;;
2023/11/29 08:57:02;;;;;;;37.40;17.50;;;;;;;-2.28;100.00;99506.68;223226;1266;141286;-76
2023/11/29 09:03:03;;;;;;;33.80;15.90;;;;;;;-2.14;100.00;99508.02;223804;1267;139928;-76
2023/11/29 09:09:04;;;;;;;34.30;16.40;;;;;;;-2.00;100.00;99492.34;223387;1266;140789;-76
2023/11/29 09:21:23;;;;;;;31.60;15.50;;;;;;;-1.86;100.00;99491.69;223250;1266;141216;-76
2023/11/29 09:33:13;;;;;;;31.30;13.60;;;;;;;-1.69;100.00;99478.41;212026;1291;640014;-76
2023/11/29 09:39:12;;;;;;;29.80;12.30;;;;;;;-1.59;100.00;99474.84;211068;1297;140559;-76
2023/11/29 09:45:09;;;;;;;35.20;17.50;;;;;;;-1.48;100.00;99469.46;207988;1295;5370415;-78
2023/11/29 09:57:12;;;;;;;26.40;12.20;;;;;;;-1.32;100.00;99466.08;213115;1292;140216;-78
2023/11/29 10:03:12;;;;;;;22.40;10.30;;;;;;;-1.23;100.00;99467.83;212361;1289;138878;-77
2023/11/29 10:15:23;;;;;;;33.80;14.10;;;;;;;-1.03;100.00;99463.57;212382;1293;137928;-79
2023/11/29 10:21:27;;;;;;;24.00;12.00;;;;;;;-0.94;100.00;99469.18;213448;1292;140733;-79
2023/11/29 10:27:10;;;;;;;;;;;;;;;;;;;;;
2023/11/29 10:33:12;;;;;;;25.20;12.10;;;;;;;-0.84;100.00;99464.27;213636;1292;138255;-79
2023/11/29 10:39:14;;;;;;;24.30;11.30;;;;;;;-0.85;100.00;99454.80;213242;1287;140288;-79
2023/11/29 10:45:18;;;;;;;25.20;11.40;;;;;;;-0.77;100.00;99450.52;213814;1290;138185;-79
2023/11/29 10:57:20;;;;;;;22.30;10.80;;;;;;;-0.66;100.00;99444.21;217754;1290;140211;-77
2023/11/29 11:03:24;;;;;;;21.70;11.00;;;;;;;-0.61;100.00;99438.56;218273;1288;138162;-78
2023/11/29 11:09:20;;;;;;;27.50;11.50;;;;;;;-0.61;100.00;99427.15;213114;1292;139961;-77
2023/11/29 11:15:09;;;;;;;21.00;11.20;;;;;;;-0.62;100.00;99418.84;212104;1290;138416;-78
2023/11/29 11:21:12;;;;;;;25.40;11.40;;;;;;;-0.62;100.00;99413.59;213355;1288;140266;-78
2023/11/29 11:26:59;;;;;;;25.50;12.00;;;;;;;-0.61;100.00;99404.30;213024;1292;140067;-79
2023/11/29 11:33:08;;;;;;;;;;;;;;;;;;;;;
2023/11/29 11:39:10;;;;;;;29.80;12.70;;;;;;;-0.56;100.00;99390.66;212777;1289;140600;-78
2023/11/29 11:45:11;;;;;;;28.80;14.10;;;;;;;-0.54;100.00;99389.60;213837;1290;138452;-79
2023/11/29 11:57:16;;;;;;;24.60;11.60;;;;;;;-0.53;100.00;99385.13;213055;1288;140107;-78
2023/11/29 12:03:11;;;;;;;28.80;12.20;;;;;;;-0.51;100.00;99384.83;212616;1292;138348;-79
2023/11/29 12:09:12;;;;;;;26.80;12.50;;;;;;;-0.49;100.00;99381.64;213102;1290;140999;-80
2023/11/29 12:15:14;;;;;;;25.50;12.10;;;;;;;-0.45;100.00;99382.20;213840;1288;139269;-79
2023/11/29 12:21:14;;;;;;;23.90;11.80;;;;;;;-0.47;100.00;99383.28;213362;1288;139871;-79
2023/11/29 12:27:02;;;;;;;26.60;12.50;;;;;;;-0.47;100.00;99376.39;213463;1292;140399;-79
2023/11/29 12:32:42;;;;;;;;;;;;;;;-0.48;100.00;99372.67;213967;1290;138276;-80
2023/11/29 12:38:37;;;;;;;27.00;13.30;;;;;;;-0.48;100.00;99362.72;212804;1290;129766;-78
2023/11/29 12:44:38;;;;;;;25.00;12.70;;;;;;;-0.47;100.00;99353.77;213520;1290;138750;-79
2023/11/29 12:50:39;;;;;;;25.60;12.50;;;;;;;-0.49;100.00;99343.83;211861;1290;141261;-79
2023/11/29 12:56:41;;;;;;;25.20;11.50;;;;;;;-0.49;100.00;99343.69;212973;1293;139447;-80
2023/11/29 13:02:42;;;;;;;27.00;12.20;;;;;;;-0.48;100.00;99333.99;213705;1293;139203;-79
2023/11/29 13:08:44;;;;;;;30.00;14.00;;;;;;;-0.48;100.00;99338.15;213125;1290;140231;-79
2023/11/29 13:14:45;;;;;;;28.60;13.90;;;;;;;-0.49;100.00;99335.58;213565;1290;139366;-79
2023/11/29 13:20:46;;;;;;;30.90;13.80;;;;;;;-0.49;100.00;99335.48;213448;1290;141822;-79
2023/11/29 13:32:49;;;;;;;33.20;15.50;;;;;;;-0.46;100.00;99333.61;213978;1288;138666;-78
2023/11/29 13:38:48;;;;;;;;;;;;;;;;;;;;;
2023/11/29 13:44:48;;;;;;;;;;;;;;;;;;;;;
2023/11/29 13:50:48;;;;;;;;;;;;;;;;;;;;;
2023/11/29 13:56:49;;;;;;;;;;;;;;;;;;;;;
2023/11/29 14:02:45;;;;;;;36.10;15.10;;;;;;;-0.53;100.00;99342.00;213106;1289;138661;-79
2023/11/29 14:08:45;;;;;;;35.90;16.30;;;;;;;-0.58;100.00;99344.55;212196;1288;140572;-79
2023/11/29 14:14:44;;;;;;;;;;;;;;;;;;;;;
2023/11/29 14:20:46;;;;;;;39.70;17.10;;;;;;;-0.65;100.00;99350.02;212130;1289;139918;-79
2023/11/29 14:27:02;;;;;;;37.20;16.40;;;;;;;-0.74;100.00;99340.10;214986;1288;162579;-79
2023/11/29 14:32:44;;;;;;;35.90;17.10;;;;;;;-0.79;100.00;99347.41;213628;1293;138682;-79
2023/11/29 14:38:45;;;;;;;41.90;18.30;;;;;;;-0.83;100.00;99345.40;213384;1289;140816;-79
2023/11/29 14:44:47;;;;;;;42.40;18.30;;;;;;;-0.87;100.00;99342.48;212498;1292;138776;-79
2023/11/29 14:50:27;;;;;;;;;;;;;;;;;;;;;
2023/11/29 14:56:29;;;;;;;34.00;16.70;;;;;;;-0.94;100.00;99346.04;213316;1292;140504;-79
2023/11/29 15:08:31;;;;;;;43.30;18.80;;;;;;;-1.00;100.00;99356.48;213011;1290;140735;-78
2023/11/29 15:14:33;;;;;;;43.30;19.20;;;;;;;-1.03;100.00;99352.34;214261;1289;140209;-78
2023/11/29 15:20:34;;;;;;;41.80;19.70;;;;;;;-1.05;100.00;99345.52;213521;1288;140962;-77
2023/11/29 15:26:37;;;;;;;50.00;22.30;;;;;;;-1.07;100.00;99342.31;213448;1288;140122;-78
2023/11/29 15:32:35;;;;;;;40.60;19.60;;;;;;;-1.07;100.00;99342.66;213696;1290;138628;-78
2023/11/29 15:38:25;;;;;;;;;;;;;;;;;;;;;
2023/11/29 15:44:27;;;;;;;44.50;20.10;;;;;;;-1.07;100.00;99339.45;214300;1288;139142;-78
2023/11/29 15:50:34;;;;;;;46.20;20.20;;;;;;;-1.08;100.00;99336.54;214669;1291;140084;-78
2023/11/29 15:56:27;;;;;;;52.40;22.60;;;;;;;-1.10;100.00;99342.56;213794;1292;140125;-80
2023/11/29 16:02:28;;;;;;;45.00;19.40;;;;;;;-1.13;100.00;99348.02;214100;1290;139214;-79
2023/11/29 16:08:29;;;;;;;46.50;20.10;;;;;;;-1.16;100.00;99346.40;212934;1290;141173;-78
2023/11/29 16:14:30;;;;;;;51.20;21.70;;;;;;;-1.17;100.00;99347.84;213853;1288;138700;-78
2023/11/29 16:20:21;;;;;;;46.30;20.50;;;;;;;-1.17;100.00;99342.91;211850;1288;139920;-79
2023/11/29 16:26:23;;;;;;;48.60;20.90;;;;;;;-1.18;100.00;99337.23;211589;1291;139306;-79
2023/11/29 16:32:17;;;;;;;46.90;19.30;;;;;;;-1.18;100.00;99345.80;213899;1289;138688;-78
2023/11/29 16:44:19;;;;;;;46.60;21.10;;;;;;;-1.20;100.00;99339.40;212643;1290;138693;-78
2023/11/29 16:50:22;;;;;;;53.90;21.40;;;;;;;-1.21;100.00;99331.11;213240;1288;139891;-78
2023/11/29 16:56:22;;;;;;;56.80;22.10;;;;;;;-1.20;100.00;99330.05;213508;1289;138646;-79
2023/11/29 17:02:06;;;;;;;51.30;21.20;;;;;;;-1.22;100.00;99329.21;213733;1290;139070;-77
2023/11/29 17:07:57;;;;;;;53.90;22.60;;;;;;;-1.22;100.00;99327.13;212728;1288;140236;-77
2023/11/29 17:13:58;;;;;;;56.80;22.10;;;;;;;-1.22;100.00;99326.48;212108;1290;139111;-77
2023/11/29 17:19:59;;;;;;;47.70;20.70;;;;;;;-1.23;100.00;99322.63;213355;1288;140845;-78
2023/11/29 17:44:03;;;;;;;46.20;20.20;;;;;;;-1.24;100.00;99318.12;214650;1289;140298;-77
2023/11/29 17:50:28;;;;;;;52.20;21.40;;;;;;;-1.22;100.00;99312.02;217672;1288;140459;-77
2023/11/29 17:56:05;;;;;;;48.70;20.60;;;;;;;-1.22;100.00;99307.09;214355;1288;139288;-78
2023/11/29 18:02:06;;;;;;;47.60;21.30;;;;;;;-1.21;100.00;99311.05;212187;1292;224423;-76
2023/11/29 18:08:08;;;;;;;48.10;21.30;;;;;;;-1.21;100.00;99312.52;211550;1288;141529;-77
2023/11/29 18:14:09;;;;;;;51.20;22.20;;;;;;;-1.21;100.00;99315.53;212174;1293;138490;-78
2023/11/29 18:20:10;;;;;;;43.50;19.50;;;;;;;-1.25;100.00;99315.30;212700;1291;140279;-78
2023/11/29 18:26:11;;;;;;;38.40;17.10;;;;;;;-1.26;100.00;99312.86;212645;1292;138611;-78
2023/11/29 18:32:15;;;;;;;47.70;20.00;;;;;;;-1.26;100.00;99309.84;212179;1293;246148;-78
2023/11/29 18:38:14;;;;;;;46.00;20.00;;;;;;;-1.28;100.00;99307.92;211516;1288;139471;-78
2023/11/29 18:44:15;;;;;;;47.20;19.50;;;;;;;-1.31;100.00;99305.41;212196;1291;138463;-79
2023/11/29 18:50:17;;;;;;;40.50;18.00;;;;;;;-1.32;100.00;99300.59;211652;1289;140800;-77
2023/11/29 18:56:18;;;;;;;44.30;18.00;;;;;;;-1.33;100.00;99286.30;212354;1288;139088;-78
2023/11/29 19:02:19;;;;;;;50.00;20.90;;;;;;;-1.33;100.00;99286.89;212238;1293;138688;-78
2023/11/29 19:08:20;;;;;;;43.60;20.10;;;;;;;-1.32;100.00;99280.38;212546;1290;140220;-79
2023/11/29 19:14:21;;;;;;;48.30;19.00;;;;;;;-1.33;100.00;99278.90;214095;1290;138527;-79
2023/11/29 19:20:23;;;;;;;43.70;19.20;;;;;;;-1.32;100.00;99277.52;213091;1292;139776;-79
2023/11/29 19:26:24;;;;;;;39.00;18.20;;;;;;;-1.32;100.00;99272.38;212860;1293;139840;-79
2023/11/29 19:32:25;;;;;;;44.10;19.80;;;;;;;-1.30;100.00;99269.36;212065;1288;139211;-78
2023/11/29 19:44:28;;;;;;;40.60;17.80;;;;;;;-1.30;100.00;99268.27;213586;1293;138685;-78
2023/11/29 19:56:30;;;;;;;48.20;19.10;;;;;;;-1.29;100.00;99273.24;212399;1292;142165;-78
2023/11/29 20:02:48;;;;;;;46.60;20.80;;;;;;;-1.28;100.00;99272.35;213389;1289;139378;-78
2023/11/29 20:08:46;;;;;;;;;;;;;;;;;;;;;
2023/11/29 20:14:49;;;;;;;47.00;20.20;;;;;;;-1.30;100.00;99267.61;212329;1289;140145;-78
2023/11/29 20:20:50;;;;;;;51.10;21.60;;;;;;;-1.32;100.00;99267.84;211957;1293;140933;-78
2023/11/29 20:27:14;;;;;;;;;;;;;;;;;;;;;
2023/11/29 20:38:49;;;;;;;46.90;20.30;;;;;;;-1.42;100.00;99265.13;211689;1293;140662;-76
2023/11/29 20:50:42;;;;;;;;;;;;;;;;;;;;;
2023/11/29 20:56:43;;;;;;;46.60;20.90;;;;;;;-1.48;100.00;99252.23;213026;1289;140889;-78
2023/11/29 21:02:44;;;;;;;45.70;20.20;;;;;;;-1.49;100.00;99249.66;212745;1293;139282;-78
2023/11/29 21:08:46;;;;;;;44.30;19.10;;;;;;;-1.47;100.00;99246.47;212423;1290;141138;-78
2023/11/29 21:14:48;;;;;;;46.80;20.50;;;;;;;-1.47;100.00;99251.74;211961;1289;139316;-78
2023/11/29 21:20:41;;;;;;;;;;;;;;;;;;;;;
2023/11/29 21:26:43;;;;;;;44.40;20.10;;;;;;;-1.47;100.00;99253.12;211671;1293;140598;-79
2023/11/29 21:32:44;;;;;;;41.50;19.30;;;;;;;-1.47;100.00;99248.20;213948;1288;138841;-79
2023/11/29 21:38:46;;;;;;;42.10;20.20;;;;;;;-1.46;100.00;99241.69;213332;1293;139977;-80
2023/11/29 21:44:47;;;;;;;42.70;19.50;;;;;;;-1.43;100.00;99237.31;210062;1290;5384747;-80
2023/11/29 22:02:42;;;;;;;;;;;;;;;;;;;;;
2023/11/29 22:08:51;;;;;;;46.60;20.70;;;;;;;-1.34;100.00;99234.29;213202;1290;140712;-79
2023/11/29 22:14:52;;;;;;;48.10;21.50;;;;;;;-1.32;100.00;99234.60;213913;1289;138726;-79
2023/11/29 22:20:52;;;;;;;47.40;22.50;;;;;;;-1.29;100.00;99224.23;216612;1289;140592;-79
2023/11/29 22:26:55;;;;;;;44.80;20.30;;;;;;;-1.25;100.00;99221.67;213676;1291;140043;-80
2023/11/29 22:38:59;;;;;;;43.50;20.20;;;;;;;-1.18;100.00;99217.55;213507;1294;140113;-80
2023/11/29 22:45:02;;;;;;;47.90;22.00;;;;;;;-1.17;100.00;99216.65;213550;1288;138637;-79
2023/11/29 22:51:02;;;;;;;47.70;22.10;;;;;;;-1.16;100.00;99208.54;212852;1288;140395;-79
2023/11/29 22:57:03;;;;;;;45.90;22.40;;;;;;;-1.12;100.00;99211.50;212074;1289;140455;-80
2023/11/29 23:03:05;;;;;;;45.00;21.30;;;;;;;-1.11;100.00;99211.34;213578;1291;138514;-80
2023/11/29 23:15:07;;;;;;;38.10;18.50;;;;;;;-1.06;100.00;99206.71;213413;1289;139157;-79
2023/11/29 23:20:49;;;;;;;;;;;;;;;;;;;;;
2023/11/29 23:26:51;;;;;;;39.00;17.90;;;;;;;-0.99;100.00;99210.55;213555;1292;140647;-78
2023/11/29 23:32:44;;;;;;;;;;;;;;;;;;;;;
2023/11/29 23:38:46;;;;;;;36.90;18.00;;;;;;;-0.95;100.00;99202.73;213378;1292;140596;-80
2023/11/29 23:44:47;;;;;;;36.40;17.30;;;;;;;-0.92;100.00;99199.30;218367;1289;139092;-80
2023/11/29 23:50:49;;;;;;;34.50;16.00;;;;;;;-0.89;100.00;99190.25;217733;1290;139991;-80
2023/11/29 23:56:50;;;;;;;35.50;18.40;;;;;;;-0.86;100.00;99199.52;217786;1288;140063;-80
